Time;durP1;ratioP1;P1;durP2;ratioP2;P2;SDS_P1;SDS_P2;PMS_P1;PMS_P2;Temp;Humidity;BMP_temperature;BMP_pressure;BME280_temperature;BME280_humidity;BME280_pressure;Samples;Min_cycle;Max_cycle;Signal;HPM_P1;HPM_P2
2022/08/29 00:00:44;;;;;;;9.05;4.33;;;;;;;16.28;79.00;95594.81;1732178;83;21063;-70
2022/08/29 00:03:11;;;;;;;7.78;4.50;;;;;;;16.29;79.38;95599.20;1732193;83;20983;-70
2022/08/29 00:05:38;;;;;;;7.60;4.58;;;;;;;16.32;79.32;95599.53;1732126;83;21019;-70
2022/08/29 00:08:06;;;;;;;7.62;4.22;;;;;;;16.33;79.12;95601.25;1732039;83;21086;-70
2022/08/29 00:10:35;;;;;;;8.73;4.53;;;;;;;16.33;79.12;95601.25;1732096;83;21070;-70
2022/08/29 00:13:04;;;;;;;8.30;4.53;;;;;;;16.32;79.41;95595.54;1732259;83;21483;-70
2022/08/29 00:15:31;;;;;;;10.15;4.62;;;;;;;16.28;79.31;95592.16;1732205;83;21015;-69
2022/08/29 00:17:59;;;;;;;11.88;5.10;;;;;;;16.31;79.06;95597.81;1732130;83;21141;-70
2022/08/29 00:20:30;;;;;;;7.42;5.05;;;;;;;16.24;79.38;95591.86;1732294;83;21030;-70
2022/08/29 00:22:58;;;;;;;7.90;4.70;;;;;;;16.21;79.80;95594.66;1731767;83;21055;-70
2022/08/29 00:25:25;;;;;;;8.25;5.80;;;;;;;16.18;79.66;95594.79;1732024;83;21054;-70
2022/08/29 00:27:52;;;;;;;6.87;5.12;;;;;;;16.19;79.41;95589.86;1732229;83;21038;-70
2022/08/29 00:30:21;;;;;;;5.62;4.92;;;;;;;16.19;79.41;95589.86;1732099;83;21090;-70
2022/08/29 00:32:47;;;;;;;9.40;5.62;;;;;;;16.17;79.08;95589.91;1732230;83;21522;-70
2022/08/29 00:35:22;;;;;;;6.85;5.75;;;;;;;16.13;78.91;95589.64;1731887;83;21544;-70
2022/08/29 00:37:51;;;;;;;9.05;5.37;;;;;;;16.08;79.31;95597.42;1730655;83;21056;-70
2022/08/29 00:40:28;;;;;;;7.95;5.37;;;;;;;15.97;79.37;95596.50;1732279;83;21030;-70
2022/08/29 00:42:55;;;;;;;7.03;5.55;;;;;;;15.94;79.40;95589.97;1732288;82;21011;-69
2022/08/29 00:45:22;;;;;;;7.92;5.87;;;;;;;15.93;78.86;95597.09;1732112;83;21064;-70
2022/08/29 00:48:00;;;;;;;11.10;6.40;;;;;;;15.84;79.50;95592.59;1732216;83;21544;-70
2022/08/29 00:50:31;;;;;;;10.80;5.60;;;;;;;15.77;80.32;95588.86;1731230;83;21050;-70
2022/08/29 00:53:01;;;;;;;6.55;5.00;;;;;;;15.71;80.42;95591.73;1728965;83;21050;-70
2022/08/29 00:55:32;;;;;;;10.95;5.55;;;;;;;15.65;81.64;95596.38;1732148;82;21469;-70
2022/08/29 00:58:10;;;;;;;7.65;5.00;;;;;;;15.64;80.96;95595.52;1732192;82;21033;-70
2022/08/29 01:00:37;;;;;;;7.45;4.97;;;;;;;15.67;80.79;95590.55;1717730;83;21031;-70
2022/08/29 01:03:06;;;;;;;8.30;5.30;;;;;;;15.65;80.44;95593.28;1732250;83;21027;-70
2022/08/29 01:05:35;;;;;;;12.90;5.78;;;;;;;15.66;80.63;95593.67;1731643;83;21075;-70
2022/08/29 01:08:04;;;;;;;8.08;5.85;;;;;;;15.70;80.62;95591.34;1732000;83;21054;-70
2022/08/29 01:13:16;;;;;;;9.55;5.45;;;;;;;15.66;80.71;95586.16;1731775;83;21094;-70
2022/08/29 01:15:45;;;;;;;10.48;5.03;;;;;;;15.61;80.95;95578.36;1732247;83;20944;-70
2022/08/29 01:18:15;;;;;;;6.78;4.60;;;;;;;15.58;80.43;95587.79;1732105;83;21085;-70
2022/08/29 01:21:25;;;;;;;5.40;4.85;;;;;;;15.56;81.19;95582.98;1732074;83;21006;-70
2022/08/29 01:24:37;;;;;;;8.53;5.15;;;;;;;15.51;80.62;95584.48;1695690;84;21170;-70
2022/08/29 01:27:05;;;;;;;5.80;4.55;;;;;;;15.43;81.42;95575.08;1708932;84;21007;-70
2022/08/29 01:29:33;;;;;;;10.05;5.10;;;;;;;15.38;81.41;95582.37;1709091;84;21023;-70
2022/08/29 01:32:00;;;;;;;7.78;4.80;;;;;;;15.42;82.15;95581.30;1708965;84;21087;-70
2022/08/29 01:34:29;;;;;;;8.50;4.95;;;;;;;15.44;81.54;95570.16;1709130;84;21073;-70
2022/08/29 01:37:04;;;;;;;7.30;4.62;;;;;;;15.46;81.12;95565.19;1709169;84;21000;-70
2022/08/29 01:39:38;;;;;;;7.62;5.15;;;;;;;15.46;80.82;95569.17;1709015;83;21042;-70
2022/08/29 01:42:13;;;;;;;6.17;4.62;;;;;;;15.42;80.99;95569.34;1709116;83;21481;-70
2022/08/29 01:44:43;;;;;;;11.22;6.60;;;;;;;15.43;80.71;95567.97;1688790;84;21003;-70
2022/08/29 01:47:10;;;;;;;5.92;4.70;;;;;;;15.43;80.49;95565.30;1688602;84;21030;-70
2022/08/29 01:49:38;;;;;;;9.25;4.87;;;;;;;15.40;80.70;95572.08;1709020;83;20988;-70
2022/08/29 01:52:05;;;;;;;8.08;4.75;;;;;;;15.35;80.56;95570.92;1709021;83;21083;-70
2022/08/29 01:54:33;;;;;;;9.10;5.42;;;;;;;15.39;80.94;95565.01;1708989;83;21010;-70
2022/08/29 01:57:00;;;;;;;23.90;6.53;;;;;;;15.39;80.91;95569.47;1709165;84;21066;-70
2022/08/29 01:59:29;;;;;;;12.60;6.17;;;;;;;15.47;81.18;95572.25;1708816;84;21042;-70
2022/08/29 02:02:01;;;;;;;10.10;5.35;;;;;;;15.54;80.66;95571.06;1708797;84;21050;-70
2022/08/29 02:04:28;;;;;;;11.10;4.83;;;;;;;15.59;80.38;95562.91;1707108;84;20991;-70
2022/08/29 02:06:55;;;;;;;13.05;4.87;;;;;;;15.55;79.75;95570.16;1708811;84;21082;-70
2022/08/29 02:09:23;;;;;;;7.92;5.35;;;;;;;15.45;79.85;95570.58;1708421;84;21043;-70
2022/08/29 02:11:51;;;;;;;10.43;4.80;;;;;;;15.41;80.05;95569.81;1709072;84;21031;-70
2022/08/29 02:14:18;;;;;;;7.53;4.95;;;;;;;15.35;80.35;95566.93;1709012;83;21022;-70
2022/08/29 02:16:45;;;;;;;8.43;5.33;;;;;;;15.39;80.18;95570.33;1708961;84;21011;-70
2022/08/29 02:19:11;;;;;;;7.12;4.65;;;;;;;15.38;80.20;95563.28;1709032;84;21465;-70
2022/08/29 02:21:39;;;;;;;7.12;4.83;;;;;;;15.28;81.02;95571.20;1709094;84;21023;-70
2022/08/29 02:24:07;;;;;;;10.58;4.90;;;;;;;15.21;81.23;95565.23;1728299;83;21031;-70
2022/08/29 02:26:33;;;;;;;7.12;4.95;;;;;;;15.19;81.29;95562.23;1732159;82;21035;-70
2022/08/29 02:29:00;;;;;;;7.50;4.83;;;;;;;15.23;81.50;95559.41;1731590;82;21528;-70
2022/08/29 02:31:28;;;;;;;6.40;4.72;;;;;;;15.18;81.25;95560.05;1732226;83;21023;-70
2022/08/29 02:33:55;;;;;;;6.80;4.92;;;;;;;15.11;81.21;95565.17;1705335;83;21517;-70
2022/08/29 02:36:23;;;;;;;8.83;5.33;;;;;;;15.11;80.99;95553.22;1732225;83;21051;-70
2022/08/29 02:38:50;;;;;;;6.97;5.20;;;;;;;15.09;80.95;95556.39;1731639;83;21544;-70
2022/08/29 02:41:17;;;;;;;7.20;5.28;;;;;;;15.04;82.33;95551.70;1732026;83;21512;-70
2022/08/29 02:43:44;;;;;;;9.13;4.60;;;;;;;15.05;82.80;95556.98;1732123;83;21505;-70
2022/08/29 02:46:17;;;;;;;6.30;4.90;;;;;;;15.07;82.00;95562.25;1732357;83;21041;-70
2022/08/29 02:48:45;;;;;;;6.25;4.50;;;;;;;15.08;81.81;95562.64;1732122;83;21031;-70
2022/08/29 02:51:19;;;;;;;10.50;4.90;;;;;;;15.16;81.44;95563.22;1731988;83;20987;-70
2022/08/29 02:53:46;;;;;;;7.80;4.85;;;;;;;15.12;81.28;95561.14;1731474;83;21058;-70
2022/08/29 02:56:13;;;;;;;6.92;5.25;;;;;;;15.08;81.53;95560.84;1732148;83;21051;-70
2022/08/29 02:58:40;;;;;;;8.18;4.80;;;;;;;15.03;81.59;95560.14;1731937;83;21098;-70
2022/08/29 03:01:09;;;;;;;12.43;5.50;;;;;;;14.99;81.85;95561.16;1732032;83;21035;-70
2022/08/29 03:03:35;;;;;;;9.38;5.00;;;;;;;14.98;81.87;95567.89;1732044;83;21074;-70
2022/08/29 03:06:03;;;;;;;6.58;4.42;;;;;;;14.93;81.95;95564.92;1731902;83;21038;-70
2022/08/29 03:08:30;;;;;;;8.88;4.87;;;;;;;14.90;82.99;95561.05;1731655;83;21105;-70
2022/08/29 03:10:57;;;;;;;10.82;5.30;;;;;;;14.93;82.61;95558.28;1731547;83;21134;-70
2022/08/29 03:13:24;;;;;;;10.63;5.10;;;;;;;15.00;82.69;95560.27;1732242;83;21011;-70
2022/08/29 03:15:51;;;;;;;9.38;5.00;;;;;;;15.08;82.40;95562.17;1732270;83;21023;-70
2022/08/29 03:18:18;;;;;;;8.63;5.42;;;;;;;15.11;82.17;95565.17;1731845;83;21038;-70
2022/08/29 03:20:45;;;;;;;10.65;4.92;;;;;;;15.15;82.05;95562.82;1732099;83;21548;-70
2022/08/29 03:23:11;;;;;;;7.25;4.67;;;;;;;15.09;81.36;95562.59;1732084;83;21472;-70
2022/08/29 03:25:38;;;;;;;8.45;4.80;;;;;;;15.08;81.70;95566.63;1731962;83;21059;-70
2022/08/29 03:28:06;;;;;;;9.68;5.47;;;;;;;15.06;81.31;95566.67;1731756;83;21601;-70
2022/08/29 03:30:33;;;;;;;9.75;5.37;;;;;;;15.12;81.82;95562.48;1732033;83;21018;-70
2022/08/29 03:33:01;;;;;;;6.50;5.28;;;;;;;15.17;81.32;95566.73;1731938;83;21050;-70
2022/08/29 03:35:28;;;;;;;8.68;5.25;;;;;;;15.09;81.72;95567.02;1732087;83;21481;-70
2022/08/29 03:37:55;;;;;;;12.73;5.85;;;;;;;15.08;81.57;95555.53;1732019;83;21059;-70
2022/08/29 03:40:23;;;;;;;11.00;5.75;;;;;;;15.03;81.13;95560.61;1731803;83;21020;-70
2022/08/29 03:42:51;;;;;;;9.73;6.92;;;;;;;14.96;80.98;95565.73;1732026;83;21084;-70
2022/08/29 03:45:19;;;;;;;7.92;6.70;;;;;;;14.97;81.56;95572.34;1732109;83;21027;-70
2022/08/29 03:47:46;;;;;;;13.53;6.97;;;;;;;15.03;81.79;95564.59;1731983;83;20979;-70
2022/08/29 03:50:14;;;;;;;13.18;6.83;;;;;;;15.07;82.20;95568.89;1732161;83;20983;-70
2022/08/29 03:52:43;;;;;;;9.68;6.72;;;;;;;15.11;81.87;95567.83;1732039;83;21018;-70
2022/08/29 03:55:11;;;;;;;10.53;6.42;;;;;;;15.11;81.49;95566.03;1732010;83;21085;-70
2022/08/29 03:57:39;;;;;;;13.03;10.08;;;;;;;15.06;81.45;95573.78;1731773;83;21536;-71
2022/08/29 04:00:11;;;;;;;11.38;7.28;;;;;;;15.01;81.57;95571.28;1731696;83;21075;-70
2022/08/29 04:02:39;;;;;;;7.87;7.15;;;;;;;14.96;82.14;95571.91;1705476;83;21016;-70
2022/08/29 04:05:07;;;;;;;12.18;7.58;;;;;;;14.91;81.75;95569.41;1731889;83;21038;-70
2022/08/29 04:07:45;;;;;;;13.08;7.08;;;;;;;14.93;82.24;95571.56;1731930;83;21027;-70
2022/08/29 04:10:20;;;;;;;12.65;7.10;;;;;;;14.91;82.14;95581.84;1732059;83;21504;-70
2022/08/29 04:12:47;;;;;;;11.60;7.67;;;;;;;14.89;83.02;95577.93;1731371;83;20999;-70
2022/08/29 04:15:14;;;;;;;7.55;6.53;;;;;;;14.90;82.71;95582.77;1731865;83;21536;-70
2022/08/29 04:17:41;;;;;;;9.65;6.78;;;;;;;14.95;83.03;95584.80;1732273;83;21027;-70
2022/08/29 04:20:10;;;;;;;10.03;6.70;;;;;;;14.95;82.88;95583.48;1732080;83;20979;-70
2022/08/29 04:22:39;;;;;;;9.18;6.70;;;;;;;14.98;83.26;95593.13;1731361;83;21023;-70
2022/08/29 04:25:11;;;;;;;12.53;6.28;;;;;;;15.08;83.30;95594.53;1701146;84;21075;-70
2022/08/29 04:27:38;;;;;;;11.88;6.58;;;;;;;15.17;83.10;95596.86;1701244;84;21024;-71
2022/08/29 04:30:11;;;;;;;14.23;6.20;;;;;;;15.28;82.93;95593.80;1700784;84;21075;-70
2022/08/29 04:32:38;;;;;;;11.18;6.10;;;;;;;15.38;82.64;95601.84;1701148;84;21554;-70
2022/08/29 04:35:06;;;;;;;12.85;6.60;;;;;;;15.49;81.98;95608.08;1701247;84;20996;-69
2022/08/29 04:37:33;;;;;;;9.60;5.97;;;;;;;15.56;81.53;95617.56;1701231;84;21019;-70
2022/08/29 04:40:00;;;;;;;8.28;5.65;;;;;;;15.61;81.48;95627.56;1700900;84;21560;-71
2022/08/29 04:42:27;;;;;;;9.00;6.20;;;;;;;15.63;81.01;95631.51;1701337;84;21039;-70
2022/08/29 04:44:54;;;;;;;7.78;6.03;;;;;;;15.66;81.52;95632.71;1701224;84;21550;-70
2022/08/29 04:47:21;;;;;;;7.87;5.50;;;;;;;15.79;81.04;95630.88;1701331;84;21501;-70
2022/08/29 04:49:51;;;;;;;11.48;6.78;;;;;;;15.79;81.04;95630.88;1701204;84;21501;-70
2022/08/29 04:52:18;;;;;;;12.45;8.30;;;;;;;15.78;80.79;95646.45;1701527;84;21075;-70
2022/08/29 04:54:44;;;;;;;11.33;8.38;;;;;;;15.76;81.02;95646.09;1701316;84;20972;-70
2022/08/29 04:57:12;;;;;;;15.93;8.57;;;;;;;15.74;81.49;95642.16;1701142;84;20956;-70
2022/08/29 04:59:38;;;;;;;14.47;8.43;;;;;;;15.87;81.82;95649.20;1700986;84;21042;-70
2022/08/29 05:02:06;;;;;;;9.98;6.55;;;;;;;16.05;81.49;95647.65;1701521;84;21051;-70
2022/08/29 05:04:32;;;;;;;10.15;7.00;;;;;;;16.18;81.22;95640.05;1701291;84;21018;-71
2022/08/29 05:06:59;;;;;;;10.18;7.33;;;;;;;16.30;81.62;95631.53;1701307;84;21082;-70
2022/08/29 05:09:26;;;;;;;12.10;7.83;;;;;;;16.46;81.48;95631.80;1701188;84;21035;-70
2022/08/29 05:11:53;;;;;;;10.80;7.60;;;;;;;16.57;81.52;95620.22;1701177;84;21521;-70
2022/08/29 05:14:20;;;;;;;9.53;7.28;;;;;;;16.94;80.76;95631.17;1701211;84;21062;-69
2022/08/29 05:16:47;;;;;;;13.53;7.72;;;;;;;16.94;80.76;95631.17;1701314;84;21019;-70
2022/08/29 05:19:15;;;;;;;11.57;7.70;;;;;;;17.08;79.08;95626.98;1700927;84;21517;-70
2022/08/29 05:21:43;;;;;;;9.80;7.78;;;;;;;17.24;79.71;95623.64;1701232;84;21003;-70
2022/08/29 05:24:12;;;;;;;11.22;7.87;;;;;;;17.40;78.49;95618.48;1700882;83;21122;-71
2022/08/29 05:26:43;;;;;;;8.98;6.12;;;;;;;17.48;78.32;95624.32;1700787;84;21008;-70
2022/08/29 05:29:12;;;;;;;13.53;7.92;;;;;;;17.46;78.30;95619.52;1701458;84;21032;-70
2022/08/29 05:31:40;;;;;;;8.20;6.78;;;;;;;17.46;79.07;95624.41;1701012;84;21031;-71
2022/08/29 05:34:11;;;;;;;10.10;8.40;;;;;;;17.64;79.06;95629.81;1701199;84;21555;-70
2022/08/29 05:36:37;;;;;;;10.58;8.10;;;;;;;17.77;78.92;95631.01;1701229;84;21052;-70
2022/08/29 05:39:04;;;;;;;10.72;8.80;;;;;;;17.92;78.55;95627.66;1701078;84;21079;-71
2022/08/29 05:41:31;;;;;;;13.08;8.85;;;;;;;18.05;78.29;95621.74;1701176;84;21008;-70
2022/08/29 05:43:58;;;;;;;14.90;8.68;;;;;;;18.19;77.77;95626.41;1701295;84;21007;-71
2022/08/29 05:46:25;;;;;;;10.95;8.75;;;;;;;18.24;77.17;95623.91;1700676;84;21087;-70
2022/08/29 05:48:51;;;;;;;10.00;9.00;;;;;;;18.27;76.93;95619.77;1701283;84;21032;-70
2022/08/29 05:51:22;;;;;;;15.20;9.85;;;;;;;18.34;76.70;95627.00;1701286;84;20988;-70
2022/08/29 05:53:49;;;;;;;10.32;8.90;;;;;;;18.44;76.60;95624.27;1701214;84;21062;-70
2022/08/29 05:56:25;;;;;;;15.60;9.58;;;;;;;18.57;76.55;95621.41;1701065;84;21016;-70
2022/08/29 05:58:53;;;;;;;16.77;9.68;;;;;;;18.73;75.35;95626.84;1701166;84;21042;-70
2022/08/29 06:01:27;;;;;;;11.25;9.68;;;;;;;18.80;75.25;95632.80;1701008;84;21027;-70
2022/08/29 06:03:55;;;;;;;13.98;10.00;;;;;;;18.88;75.32;95635.08;1701306;84;21012;-70
2022/08/29 06:06:25;;;;;;;11.50;9.38;;;;;;;19.04;75.00;95634.67;1700962;84;21513;-70
2022/08/29 06:08:53;;;;;;;15.85;9.45;;;;;;;19.23;75.26;95635.95;1701321;84;21099;-71
2022/08/29 06:11:24;;;;;;;10.43;8.78;;;;;;;19.37;74.33;95633.87;1700887;84;21038;-71
2022/08/29 06:13:51;;;;;;;10.72;8.43;;;;;;;19.42;74.03;95636.69;1701227;84;21062;-71
2022/08/29 06:16:21;;;;;;;14.05;8.40;;;;;;;19.51;73.91;95639.37;1701039;84;21501;-70
2022/08/29 06:18:48;;;;;;;10.98;7.40;;;;;;;19.59;74.04;95636.28;1701259;84;21039;-70
2022/08/29 06:21:15;;;;;;;13.95;7.92;;;;;;;19.66;73.57;95642.56;1701103;84;21016;-70
2022/08/29 06:23:44;;;;;;;9.08;7.25;;;;;;;19.73;74.16;95644.48;1707316;83;21074;-70
2022/08/29 06:26:13;;;;;;;9.90;7.45;;;;;;;19.91;74.18;95650.64;1731962;83;20997;-70
2022/08/29 06:28:46;;;;;;;20.48;8.30;;;;;;;20.01;73.71;95645.66;1731801;83;21027;-70
2022/08/29 06:31:20;;;;;;;8.55;7.17;;;;;;;20.18;73.35;95644.70;1732163;83;21079;-70
2022/08/29 06:33:53;;;;;;;8.70;7.78;;;;;;;20.29;72.68;95647.66;1732110;83;21015;-70
2022/08/29 06:36:20;;;;;;;;;;;;;;;20.29;71.91;95652.54;1734667;82;21011;-70
2022/08/29 06:38:47;;;;;;;9.75;7.50;;;;;;;20.34;72.07;95650.95;1731790;83;20109;-70
2022/08/29 06:41:17;;;;;;;13.93;7.83;;;;;;;20.38;73.28;95644.92;1732063;83;21035;-71
2022/08/29 06:43:44;;;;;;;10.00;7.50;;;;;;;20.39;73.33;95655.57;1731904;83;21057;-70
2022/08/29 06:46:22;;;;;;;13.05;8.98;;;;;;;20.38;73.40;95655.16;1731779;83;21099;-70
2022/08/29 06:48:50;;;;;;;14.43;8.90;;;;;;;20.47;73.48;95653.31;1724512;83;21058;-70
2022/08/29 06:51:17;;;;;;;11.78;8.93;;;;;;;20.69;73.87;95658.35;1731815;83;20996;-70
2022/08/29 06:53:45;;;;;;;15.28;9.25;;;;;;;21.00;73.04;95658.39;1732230;83;20999;-70
2022/08/29 06:56:13;;;;;;;14.40;9.20;;;;;;;21.26;72.02;95657.69;1731647;83;20995;-70
2022/08/29 06:58:40;;;;;;;10.43;9.43;;;;;;;21.47;71.17;95656.93;1732227;83;21555;-71
2022/08/29 07:01:14;;;;;;;11.78;9.10;;;;;;;21.63;71.02;95658.19;1731771;83;21018;-71
2022/08/29 07:03:41;;;;;;;14.38;9.35;;;;;;;21.73;69.62;95658.02;1732091;82;21075;-70
2022/08/29 07:06:09;;;;;;;13.80;9.30;;;;;;;21.77;69.10;95661.36;1732137;83;21059;-70
2022/08/29 07:08:37;;;;;;;13.00;10.15;;;;;;;21.91;69.05;95660.52;1732124;83;21542;-70
2022/08/29 07:11:04;;;;;;;15.15;9.08;;;;;;;21.97;68.90;95662.80;1731825;83;21035;-70
2022/08/29 07:13:33;;;;;;;11.97;9.80;;;;;;;22.06;67.31;95662.72;1731949;83;21031;-70
2022/08/29 07:16:00;;;;;;;13.72;9.78;;;;;;;22.22;67.79;95663.50;1732126;83;21003;-70
2022/08/29 07:18:27;;;;;;;13.28;9.30;;;;;;;22.37;68.02;95658.48;1732001;83;21067;-70
2022/08/29 07:20:54;;;;;;;12.35;9.63;;;;;;;22.55;67.74;95656.42;1731989;83;21584;-71
2022/08/29 07:23:21;;;;;;;12.60;9.08;;;;;;;22.75;67.75;95662.34;1731980;83;21057;-70
2022/08/29 07:25:47;;;;;;;16.27;9.25;;;;;;;22.86;65.77;95651.27;1731457;83;21025;-70
2022/08/29 07:28:14;;;;;;;12.33;9.15;;;;;;;22.98;66.51;95654.12;1732087;83;21003;-70
2022/08/29 07:30:40;;;;;;;14.00;8.78;;;;;;;23.15;64.50;95653.00;1731908;83;21488;-70
2022/08/29 07:33:07;;;;;;;12.40;9.80;;;;;;;23.30;64.58;95649.27;1731773;83;21559;-70
2022/08/29 07:35:34;;;;;;;12.45;9.50;;;;;;;23.44;64.84;95645.64;1732367;83;21027;-70
2022/08/29 07:38:00;;;;;;;15.98;9.05;;;;;;;23.53;64.17;95643.14;1731689;83;21051;-70
2022/08/29 07:40:28;;;;;;;14.35;9.40;;;;;;;23.64;63.29;95641.08;1732215;83;21022;-70
2022/08/29 07:42:55;;;;;;;18.77;9.93;;;;;;;23.72;63.50;95643.23;1732125;83;21022;-70
2022/08/29 07:45:21;;;;;;;16.97;9.88;;;;;;;23.83;64.22;95639.32;1731805;82;21525;-71
2022/08/29 07:47:48;;;;;;;12.23;9.55;;;;;;;23.96;64.05;95642.89;1732366;83;21011;-70
2022/08/29 07:50:15;;;;;;;12.78;9.18;;;;;;;24.12;64.43;95644.50;1732077;83;21046;-70
2022/08/29 07:52:42;;;;;;;14.95;10.10;;;;;;;24.30;64.09;95645.00;1731653;83;21035;-70
2022/08/29 07:55:09;;;;;;;14.87;9.55;;;;;;;24.44;63.52;95640.80;1732335;82;20995;-70
2022/08/29 07:57:36;;;;;;;11.85;8.93;;;;;;;24.59;62.15;95633.45;1732008;83;21031;-70
2022/08/29 08:00:07;;;;;;;12.98;8.88;;;;;;;24.69;59.90;95635.84;1732063;83;21031;-70
2022/08/29 08:02:35;;;;;;;16.05;9.50;;;;;;;24.79;60.16;95634.19;1731244;83;21575;-71
2022/08/29 08:05:02;;;;;;;15.88;9.50;;;;;;;24.92;58.67;95632.81;1731998;83;21031;-70
2022/08/29 08:07:30;;;;;;;14.85;9.78;;;;;;;25.04;58.73;95636.41;1731744;83;21082;-70
2022/08/29 08:09:57;;;;;;;12.33;9.43;;;;;;;25.18;58.82;95634.05;1732043;83;21034;-70
2022/08/29 08:12:25;;;;;;;11.57;9.30;;;;;;;25.29;58.12;95629.17;1732041;83;21059;-70
2022/08/29 08:14:52;;;;;;;13.98;9.68;;;;;;;25.37;55.58;95632.14;1731706;83;21578;-70
2022/08/29 08:17:18;;;;;;;13.83;9.45;;;;;;;25.47;56.74;95635.36;1732373;83;21015;-70
2022/08/29 08:19:45;;;;;;;16.35;9.73;;;;;;;25.61;56.85;95634.80;1732130;83;21030;-70
2022/08/29 08:22:11;;;;;;;19.00;9.63;;;;;;;25.75;56.63;95631.01;1732486;83;20952;-70
2022/08/29 08:24:38;;;;;;;17.42;9.40;;;;;;;25.96;57.12;95633.42;1721386;83;20996;-70
2022/08/29 08:27:05;;;;;;;11.50;9.25;;;;;;;26.13;56.58;95634.76;1701099;84;21022;-70
2022/08/29 08:29:32;;;;;;;18.02;9.03;;;;;;;26.26;55.58;95631.46;1701003;84;21046;-70
2022/08/29 08:31:58;;;;;;;13.22;9.60;;;;;;;26.40;54.81;95627.63;1701359;84;20972;-70
2022/08/29 08:34:28;;;;;;;15.90;8.25;;;;;;;26.57;54.82;95627.65;1700796;84;21584;-71
2022/08/29 08:36:54;;;;;;;14.83;8.50;;;;;;;26.71;53.90;95620.63;1701260;84;21066;-70
2022/08/29 08:39:21;;;;;;;13.00;7.70;;;;;;;26.63;51.27;95625.78;1701204;83;21059;-70
2022/08/29 08:42:13;;;;;;;10.55;7.75;;;;;;;26.50;51.50;95626.39;1701022;84;21501;-70
2022/08/29 08:45:11;;;;;;;15.40;7.40;;;;;;;26.39;52.45;95633.18;1700654;84;21145;-70
2022/08/29 08:47:48;;;;;;;10.25;8.03;;;;;;;26.25;51.27;95639.19;1701030;84;21668;-70
2022/08/29 08:50:44;;;;;;;10.78;7.58;;;;;;;26.11;50.32;95642.16;1701294;84;21027;-70
2022/08/29 08:53:22;;;;;;;13.05;8.58;;;;;;;25.89;49.59;95649.25;1701030;84;21044;-70
2022/08/29 08:55:54;;;;;;;13.35;7.85;;;;;;;25.71;51.68;95653.88;1700700;84;21589;-70
2022/08/29 08:58:41;;;;;;;11.73;8.15;;;;;;;25.48;51.29;95657.36;1701354;84;21007;-70
2022/08/29 09:01:32;;;;;;;15.58;9.00;;;;;;;25.22;51.40;95665.23;1701474;84;21028;-70
2022/08/29 09:04:49;;;;;;;9.53;8.05;;;;;;;25.00;54.74;95674.92;1700550;84;21074;-70
2022/08/29 09:07:39;;;;;;;11.80;8.68;;;;;;;24.73;55.79;95679.17;1701000;84;21560;-70
2022/08/29 09:10:30;;;;;;;14.60;9.38;;;;;;;24.50;58.43;95686.75;1700969;84;21545;-70
2022/08/29 09:13:08;;;;;;;16.02;8.68;;;;;;;24.33;59.06;95677.98;1701275;84;21091;-70
2022/08/29 09:15:45;;;;;;;16.35;9.00;;;;;;;24.28;59.53;95684.20;1700430;84;21031;-70
2022/08/29 09:18:29;;;;;;;11.80;8.60;;;;;;;24.61;59.53;95672.83;1701034;84;21082;-70
2022/08/29 09:20:58;;;;;;;13.22;9.10;;;;;;;25.04;58.02;95670.14;1701002;84;21036;-70
2022/08/29 09:23:42;;;;;;;10.68;8.63;;;;;;;25.20;56.64;95672.11;1701125;84;21047;-70
2022/08/29 09:26:09;;;;;;;18.42;8.70;;;;;;;25.22;55.77;95669.28;1701186;83;21756;-70
2022/08/29 09:28:35;;;;;;;11.75;9.38;;;;;;;25.23;55.94;95669.17;1701089;84;21030;-70
2022/08/29 09:31:23;;;;;;;14.50;8.83;;;;;;;25.26;56.19;95664.88;1701280;84;20976;-70
2022/08/29 09:34:01;;;;;;;19.45;9.58;;;;;;;25.31;58.28;95674.48;1701030;84;21078;-70
2022/08/29 09:36:40;;;;;;;15.40;9.28;;;;;;;25.34;58.35;95668.84;1701338;84;21015;-70
2022/08/29 09:39:27;;;;;;;15.10;8.70;;;;;;;25.41;60.43;95670.11;1679144;84;21091;-70
2022/08/29 09:41:59;;;;;;;11.55;8.33;;;;;;;25.66;59.73;95665.03;1700798;84;21051;-70
2022/08/29 09:44:33;;;;;;;17.02;8.30;;;;;;;26.04;57.84;95655.30;1698229;84;21043;-70
2022/08/29 09:47:10;;;;;;;21.15;9.25;;;;;;;26.49;56.05;95662.56;1701398;84;21007;-70
2022/08/29 09:49:40;;;;;;;16.75;9.03;;;;;;;26.87;55.39;95658.10;1701123;84;21039;-71
2022/08/29 09:52:15;;;;;;;15.23;8.70;;;;;;;27.02;53.55;95657.33;1701233;84;21003;-70
2022/08/29 09:54:44;;;;;;;12.78;8.50;;;;;;;27.25;50.78;95655.44;1699791;84;21035;-70
2022/08/29 09:57:26;;;;;;;17.42;8.50;;;;;;;27.43;49.65;95661.64;1701019;84;21015;-70
2022/08/29 10:00:14;;;;;;;14.95;8.18;;;;;;;27.62;48.96;95665.38;1701074;84;21130;-70
2022/08/29 10:02:55;;;;;;;12.75;7.80;;;;;;;27.96;49.71;95663.84;1701229;84;20976;-70
2022/08/29 10:05:45;;;;;;;15.83;7.95;;;;;;;28.22;48.29;95664.77;1700369;84;21077;-70
2022/08/29 10:08:34;;;;;;;10.18;8.00;;;;;;;28.52;48.70;95653.58;1698427;84;21517;-70
2022/08/29 10:11:07;;;;;;;12.10;8.18;;;;;;;28.65;45.87;95660.98;1701437;84;20999;-70
2022/08/29 10:13:57;;;;;;;17.23;8.13;;;;;;;28.36;47.17;95656.78;1701215;84;21011;-70
2022/08/29 10:16:39;;;;;;;12.13;8.20;;;;;;;28.30;47.11;95667.69;1700612;84;21039;-70
2022/08/29 10:19:11;;;;;;;10.80;7.47;;;;;;;28.21;47.72;95666.63;1701219;84;21561;-70
2022/08/29 10:22:09;;;;;;;16.42;8.25;;;;;;;28.03;47.81;95675.88;1701027;84;21035;-70
2022/08/29 10:24:41;;;;;;;12.40;8.45;;;;;;;27.88;48.61;95666.86;1701223;83;20984;-70
2022/08/29 10:27:34;;;;;;;16.80;7.97;;;;;;;27.65;49.07;95664.25;1699502;84;21055;-70
2022/08/29 10:30:12;;;;;;;9.73;8.48;;;;;;;27.53;48.82;95674.27;1701853;84;21035;-70
2022/08/29 10:33:20;;;;;;;11.75;8.13;;;;;;;27.44;49.82;95677.75;1701081;84;21063;-70
2022/08/29 10:35:59;;;;;;;15.63;8.78;;;;;;;27.36;48.95;95682.47;1701386;84;21067;-70
2022/08/29 10:38:37;;;;;;;11.63;8.40;;;;;;;27.20;49.45;95687.47;1701304;84;21039;-70
2022/08/29 10:41:47;;;;;;;10.98;8.15;;;;;;;27.03;50.41;95702.36;1701192;84;21031;-70
2022/08/29 10:44:57;;;;;;;13.20;8.85;;;;;;;26.80;51.86;95707.47;1700888;84;21035;-70
2022/08/29 10:47:29;;;;;;;12.58;7.67;;;;;;;26.51;54.69;95711.52;1697894;84;21050;-70
2022/08/29 10:50:22;;;;;;;11.60;7.83;;;;;;;26.23;55.00;95710.62;1701807;84;21043;-70
2022/08/29 10:52:58;;;;;;;12.88;8.08;;;;;;;26.05;54.81;95715.14;1701058;84;21051;-70
2022/08/29 10:55:50;;;;;;;10.72;7.97;;;;;;;25.87;55.60;95712.53;1701256;84;21542;-71
2022/08/29 10:58:55;;;;;;;15.68;8.40;;;;;;;25.68;55.80;95718.47;1701066;84;21043;-70
2022/08/29 11:01:58;;;;;;;12.33;8.68;;;;;;;25.53;57.27;95716.45;1701078;84;21042;-70
2022/08/29 11:04:28;;;;;;;;;;;;;;;25.33;57.82;95712.55;1703865;84;21477;-70
2022/08/29 11:07:18;;;;;;;11.68;8.35;;;;;;;25.21;58.34;95710.28;1701287;83;20097;-70
2022/08/29 11:09:59;;;;;;;12.45;8.53;;;;;;;25.14;58.63;95710.82;1701175;84;20996;-70
2022/08/29 11:13:11;;;;;;;10.13;8.98;;;;;;;25.06;59.45;95711.39;1700868;84;21039;-70
2022/08/29 11:16:08;;;;;;;11.28;8.40;;;;;;;24.99;59.22;95708.77;1700832;84;21071;-70
2022/08/29 11:18:49;;;;;;;16.62;8.60;;;;;;;24.83;59.26;95700.95;1700747;84;21020;-70
2022/08/29 11:21:41;;;;;;;12.40;8.38;;;;;;;24.72;59.28;95710.30;1701187;84;21000;-70
2022/08/29 11:24:11;;;;;;;14.50;8.85;;;;;;;24.62;59.56;95714.19;1701204;84;21019;-70
2022/08/29 11:27:10;;;;;;;10.03;9.00;;;;;;;24.50;60.56;95724.51;1724817;83;21066;-70
2022/08/29 11:30:02;;;;;;;14.80;9.85;;;;;;;24.40;60.79;95717.03;1732015;83;21078;-70
2022/08/29 11:32:58;;;;;;;11.73;10.40;;;;;;;24.30;60.38;95727.24;1732360;83;21018;-70
2022/08/29 11:35:40;;;;;;;13.38;10.82;;;;;;;24.21;61.67;95737.32;1732182;83;21078;-70
2022/08/29 11:38:21;;;;;;;13.70;9.50;;;;;;;24.02;61.79;95733.23;1731548;82;21091;-70
2022/08/29 11:41:08;;;;;;;16.23;12.63;;;;;;;23.92;61.86;95729.45;1732038;83;21062;-70
2022/08/29 11:43:41;;;;;;;13.90;11.15;;;;;;;23.87;61.53;95719.48;1731731;83;21026;-70
2022/08/29 11:46:11;;;;;;;11.95;9.83;;;;;;;23.90;61.57;95705.78;1732498;82;21015;-70
2022/08/29 11:48:42;;;;;;;12.68;9.78;;;;;;;23.94;61.67;95693.34;1732410;82;21027;-70
2022/08/29 11:51:38;;;;;;;13.30;10.50;;;;;;;23.98;61.19;95692.63;1732348;82;21481;-70
2022/08/29 11:54:31;;;;;;;12.25;10.32;;;;;;;23.99;61.33;95694.37;1732291;82;21000;-70
2022/08/29 11:57:07;;;;;;;11.12;10.00;;;;;;;24.13;61.10;95692.89;1732372;82;21030;-70